Time;durP1;ratioP1;P1;durP2;ratioP2;P2;SDS_P1;SDS_P2;PMS_P1;PMS_P2;Temp;Humidity;BMP_temperature;BMP_pressure;BME280_temperature;BME280_humidity;BME280_pressure;Samples;Min_cycle;Max_cycle;Signal;HPM_P1;HPM_P2
2022/03/09 00:00:29;;;;;;;7.45;4.45;;;3.10;99.90;;;;;;5050315;28;20136;-67
2022/03/09 00:02:55;;;;;;;9.73;5.40;;;3.10;99.90;;;;;;5045609;28;21009;-67
2022/03/09 00:05:20;;;;;;;8.70;5.55;;;3.00;99.90;;;;;;5050627;28;20525;-67
2022/03/09 00:07:46;;;;;;;7.05;4.68;;;2.90;99.90;;;;;;5080359;28;20477;-69
2022/03/09 00:10:12;;;;;;;9.30;4.68;;;2.90;99.90;;;;;;5096681;28;20060;-68
2022/03/09 00:12:37;;;;;;;12.77;4.88;;;2.90;99.90;;;;;;5097590;28;20096;-68
2022/03/09 00:15:03;;;;;;;8.50;4.75;;;2.90;99.90;;;;;;5107261;28;20047;-68
2022/03/09 00:17:28;;;;;;;8.10;4.90;;;2.80;99.90;;;;;;5113031;28;20091;-68
2022/03/09 00:19:54;;;;;;;6.65;4.95;;;2.90;99.90;;;;;;5097306;28;20040;-68
2022/03/09 00:22:20;;;;;;;8.45;5.32;;;2.80;99.90;;;;;;5089664;28;20047;-68
2022/03/09 00:24:45;;;;;;;8.52;4.97;;;2.80;99.90;;;;;;5090063;28;20047;-68
2022/03/09 00:27:11;;;;;;;6.60;5.03;;;2.80;99.90;;;;;;5090123;28;20040;-68
2022/03/09 00:29:37;;;;;;;14.82;5.88;;;2.70;99.90;;;;;;5089400;28;20123;-68
2022/03/09 00:32:04;;;;;;;8.50;5.03;;;2.70;99.90;;;;;;5089425;28;20040;-68
2022/03/09 00:34:30;;;;;;;9.68;5.20;;;2.60;99.90;;;;;;5089690;28;20047;-68
2022/03/09 00:36:55;;;;;;;9.63;5.30;;;2.60;99.90;;;;;;5089621;28;20040;-68
2022/03/09 00:39:21;;;;;;;8.07;5.15;;;2.60;99.90;;;;;;5090053;28;20469;-68
2022/03/09 00:41:46;;;;;;;11.55;4.65;;;2.60;99.90;;;;;;5088873;28;20380;-68
2022/03/09 00:44:12;;;;;;;8.45;5.45;;;2.50;99.90;;;;;;5090063;28;20039;-67
2022/03/09 00:46:38;;;;;;;7.88;5.07;;;2.50;99.90;;;;;;5089574;28;20039;-67
2022/03/09 00:49:03;;;;;;;9.50;5.57;;;2.50;99.90;;;;;;5089567;28;20126;-67
2022/03/09 00:51:29;;;;;;;10.73;5.47;;;2.50;99.90;;;;;;5089582;28;20047;-67
2022/03/09 00:53:54;;;;;;;6.53;4.78;;;2.50;99.90;;;;;;5087947;28;20060;-67
2022/03/09 00:56:20;;;;;;;6.75;4.47;;;2.50;99.90;;;;;;5089427;28;20044;-67
2022/03/09 00:58:47;;;;;;;7.70;5.45;;;2.50;99.90;;;;;;5089890;28;20127;-67
2022/03/09 01:01:13;;;;;;;10.45;5.75;;;2.50;99.90;;;;;;5088308;28;20036;-68
2022/03/09 01:03:38;;;;;;;9.82;5.10;;;2.40;99.90;;;;;;5087895;28;20044;-67
2022/03/09 01:06:04;;;;;;;8.35;5.38;;;2.40;99.90;;;;;;5089277;28;20047;-67
2022/03/09 01:08:30;;;;;;;8.23;5.35;;;2.40;99.90;;;;;;5090023;28;20075;-67
2022/03/09 01:10:56;;;;;;;7.78;5.22;;;2.40;99.90;;;;;;5091980;28;20040;-67
2022/03/09 01:13:22;;;;;;;10.95;5.85;;;2.40;99.90;;;;;;5093095;28;20067;-67
2022/03/09 01:15:48;;;;;;;9.43;5.32;;;2.40;99.90;;;;;;5092224;28;20081;-67
2022/03/09 01:18:14;;;;;;;11.32;5.10;;;2.40;99.90;;;;;;5091149;28;20044;-67
2022/03/09 01:20:40;;;;;;;8.07;5.10;;;2.30;99.90;;;;;;5093866;28;20070;-67
2022/03/09 01:23:06;;;;;;;11.63;5.90;;;2.20;99.90;;;;;;5093799;28;20036;-67
2022/03/09 01:25:31;;;;;;;7.30;5.35;;;2.20;99.90;;;;;;5095101;28;20036;-68
2022/03/09 01:27:57;;;;;;;11.48;6.38;;;2.20;99.90;;;;;;5100865;28;20557;-68
2022/03/09 01:30:23;;;;;;;9.27;5.25;;;2.20;99.90;;;;;;5084387;28;20076;-68
2022/03/09 01:32:48;;;;;;;8.98;5.55;;;2.20;99.90;;;;;;5094781;28;20067;-68
2022/03/09 01:35:14;;;;;;;8.98;5.50;;;2.30;99.90;;;;;;5092025;28;20520;-67
2022/03/09 01:37:41;;;;;;;7.85;5.40;;;2.30;99.90;;;;;;5093551;28;20075;-67
2022/03/09 01:40:07;;;;;;;14.10;6.13;;;2.30;99.90;;;;;;5093299;28;20434;-67
2022/03/09 01:42:33;;;;;;;7.63;4.78;;;2.20;99.90;;;;;;5092464;28;20516;-67
2022/03/09 01:45:04;;;;;;;9.20;5.53;;;2.30;99.90;;;;;;5093908;28;20130;-67
2022/03/09 01:47:30;;;;;;;9.15;5.00;;;2.30;99.90;;;;;;5114482;28;20104;-67
2022/03/09 01:49:55;;;;;;;10.32;5.95;;;2.20;99.90;;;;;;5117832;28;20090;-67
2022/03/09 01:52:22;;;;;;;10.48;6.35;;;2.10;99.90;;;;;;5100305;28;20058;-67
2022/03/09 01:54:47;;;;;;;13.88;6.32;;;2.10;99.90;;;;;;5093039;28;20481;-67
2022/03/09 01:57:13;;;;;;;13.43;7.03;;;2.10;99.90;;;;;;5092782;28;20089;-67
2022/03/09 01:59:40;;;;;;;13.05;7.15;;;2.10;99.90;;;;;;5092954;28;20047;-67
2022/03/09 02:02:05;;;;;;;16.33;7.82;;;2.20;99.90;;;;;;5091954;28;20040;-67
2022/03/09 02:04:31;;;;;;;13.20;7.10;;;2.20;99.90;;;;;;5092759;28;20134;-67
2022/03/09 02:06:56;;;;;;;11.10;6.03;;;2.20;99.90;;;;;;5092676;28;20064;-67
2022/03/09 02:12:07;;;;;;;13.23;7.32;;;2.20;99.90;;;;;;5090663;28;20055;-67
2022/03/09 02:14:48;;;;;;;9.57;6.15;;;2.10;99.90;;;;;;5092662;28;20047;-67
2022/03/09 02:17:17;;;;;;;11.52;6.22;;;2.10;99.90;;;;;;5090155;28;20824;-67
2022/03/09 02:19:45;;;;;;;12.05;6.72;;;2.00;99.90;;;;;;5091330;28;20057;-67
2022/03/09 02:22:20;;;;;;;11.38;6.55;;;2.00;99.90;;;;;;5090243;28;20456;-67
2022/03/09 02:24:51;;;;;;;8.65;5.88;;;2.10;99.90;;;;;;5092375;28;20141;-67
2022/03/09 02:27:20;;;;;;;10.70;6.00;;;2.20;99.90;;;;;;5090960;28;20119;-67
2022/03/09 02:29:49;;;;;;;11.38;6.68;;;2.10;99.90;;;;;;5091384;28;20067;-67
2022/03/09 02:32:15;;;;;;;14.27;7.57;;;2.10;99.90;;;;;;5089946;28;20050;-67
2022/03/09 02:34:41;;;;;;;12.85;6.40;;;2.10;99.90;;;;;;5092328;28;20039;-67
2022/03/09 02:37:07;;;;;;;12.00;6.63;;;2.10;99.90;;;;;;5092001;28;20373;-67
2022/03/09 02:39:32;;;;;;;13.30;6.63;;;2.00;99.90;;;;;;5090867;28;20032;-67
2022/03/09 02:41:58;;;;;;;12.38;6.47;;;2.00;99.90;;;;;;5091589;28;20039;-67
2022/03/09 02:44:23;;;;;;;10.73;6.68;;;2.00;99.90;;;;;;5092424;28;20115;-68
2022/03/09 02:46:49;;;;;;;15.40;6.78;;;1.90;99.90;;;;;;5095663;28;20040;-68
2022/03/09 02:49:15;;;;;;;11.15;6.47;;;1.90;99.90;;;;;;5105025;28;20100;-68
2022/03/09 02:51:41;;;;;;;12.10;7.32;;;2.10;99.90;;;;;;5098008;28;20097;-67
2022/03/09 02:54:06;;;;;;;12.90;6.72;;;2.00;99.90;;;;;;5092299;28;20032;-67
2022/03/09 02:56:32;;;;;;;12.75;6.80;;;2.00;99.90;;;;;;5092123;28;20040;-67
2022/03/09 02:58:58;;;;;;;11.13;7.47;;;2.00;99.90;;;;;;5092168;28;20115;-68
2022/03/09 03:01:23;;;;;;;13.70;7.45;;;1.90;99.90;;;;;;5091671;28;20044;-68
2022/03/09 03:03:49;;;;;;;10.75;6.50;;;1.90;99.90;;;;;;5090898;28;20386;-68
2022/03/09 03:06:15;;;;;;;12.45;6.55;;;1.90;99.90;;;;;;5091522;28;20059;-68
2022/03/09 03:08:41;;;;;;;12.40;5.63;;;2.00;99.90;;;;;;5091629;28;20554;-68
2022/03/09 03:11:10;;;;;;;14.07;6.93;;;1.90;99.90;;;;;;5091398;28;20507;-68
2022/03/09 03:13:39;;;;;;;14.48;7.68;;;1.90;99.90;;;;;;5090794;28;20036;-68
2022/03/09 03:16:08;;;;;;;12.98;6.38;;;1.90;99.90;;;;;;5091726;28;20044;-68
2022/03/09 03:18:34;;;;;;;11.90;6.75;;;1.90;99.90;;;;;;5090483;28;20783;-68
2022/03/09 03:21:00;;;;;;;13.70;6.63;;;1.80;99.90;;;;;;5113426;28;20035;-68
2022/03/09 03:23:27;;;;;;;12.07;7.05;;;1.80;99.90;;;;;;5114208;28;20059;-68
2022/03/09 03:25:54;;;;;;;11.93;6.72;;;1.80;99.90;;;;;;5094931;28;20499;-68
2022/03/09 03:28:20;;;;;;;10.38;6.55;;;1.70;99.90;;;;;;5092200;28;20154;-68
2022/03/09 03:30:46;;;;;;;11.05;6.35;;;1.80;99.90;;;;;;5091362;28;20036;-68
2022/03/09 03:33:13;;;;;;;12.38;7.45;;;1.80;99.90;;;;;;5089683;28;20489;-68
2022/03/09 03:35:40;;;;;;;12.75;7.10;;;1.70;99.90;;;;;;5091500;28;20089;-68
2022/03/09 03:38:05;;;;;;;11.30;6.70;;;1.70;99.90;;;;;;5091410;28;20067;-68
2022/03/09 03:40:31;;;;;;;13.55;6.78;;;1.60;99.90;;;;;;5091218;28;20028;-68
2022/03/09 03:42:57;;;;;;;10.27;6.38;;;1.70;99.90;;;;;;5090457;28;20028;-68
2022/03/09 03:45:22;;;;;;;11.82;7.40;;;1.60;99.90;;;;;;5091139;28;20028;-68
2022/03/09 03:47:48;;;;;;;11.27;6.60;;;1.60;99.90;;;;;;5089444;28;20044;-68
2022/03/09 03:50:14;;;;;;;11.02;6.72;;;1.50;99.90;;;;;;5089445;28;20408;-68
2022/03/09 03:52:39;;;;;;;14.95;7.22;;;1.40;99.90;;;;;;5089048;28;20047;-68
2022/03/09 03:55:05;;;;;;;12.57;6.82;;;1.50;99.90;;;;;;5089857;28;20113;-68
2022/03/09 03:57:31;;;;;;;13.48;6.65;;;1.50;99.90;;;;;;5091024;28;20036;-68
2022/03/09 03:59:57;;;;;;;27.70;9.90;;;1.50;99.90;;;;;;5089764;28;20534;-68
2022/03/09 04:02:22;;;;;;;12.98;6.82;;;1.50;99.90;;;;;;5071547;28;20115;-68
2022/03/09 04:04:50;;;;;;;11.50;6.78;;;1.50;99.90;;;;;;5090736;28;20109;-68
2022/03/09 04:07:16;;;;;;;11.45;7.63;;;1.50;99.90;;;;;;5092668;28;20064;-68
2022/03/09 04:09:41;;;;;;;15.18;7.10;;;1.50;99.90;;;;;;5102847;28;20060;-68
2022/03/09 04:12:07;;;;;;;10.43;6.80;;;1.40;99.90;;;;;;5097254;28;20036;-68
2022/03/09 04:14:33;;;;;;;14.10;6.50;;;1.50;99.90;;;;;;5090445;28;20530;-68
2022/03/09 04:16:59;;;;;;;16.40;6.97;;;1.40;99.90;;;;;;5087446;28;20083;-68
2022/03/09 04:19:24;;;;;;;12.95;7.18;;;1.40;99.90;;;;;;5089434;28;20381;-68
2022/03/09 04:21:50;;;;;;;13.38;7.13;;;1.40;99.90;;;;;;5089834;28;20040;-68
2022/03/09 04:24:15;;;;;;;11.65;6.95;;;1.30;99.90;;;;;;5088853;28;20131;-69
2022/03/09 04:26:41;;;;;;;15.23;7.75;;;1.40;99.90;;;;;;5090097;28;20028;-68
2022/03/09 04:29:06;;;;;;;14.73;7.63;;;1.40;99.90;;;;;;5089945;28;20082;-68
2022/03/09 04:31:32;;;;;;;12.30;7.13;;;1.40;99.90;;;;;;5088231;28;20036;-68
2022/03/09 04:33:58;;;;;;;13.38;6.75;;;1.40;99.90;;;;;;5088397;28;20044;-69
2022/03/09 04:36:23;;;;;;;13.95;7.25;;;1.40;99.90;;;;;;5090167;28;20115;-68
2022/03/09 04:38:49;;;;;;;12.82;6.85;;;1.30;99.90;;;;;;5088993;28;20566;-68
2022/03/09 04:41:14;;;;;;;13.02;7.28;;;1.30;99.90;;;;;;5090065;28;20038;-68
2022/03/09 04:43:40;;;;;;;11.30;6.72;;;1.30;99.90;;;;;;5089883;28;20043;-68
2022/03/09 04:46:06;;;;;;;15.77;7.90;;;1.20;99.90;;;;;;5092968;28;20036;-68
2022/03/09 04:48:31;;;;;;;15.07;7.45;;;1.20;99.90;;;;;;5094596;28;20067;-68
2022/03/09 04:50:57;;;;;;;12.35;7.60;;;1.20;99.90;;;;;;5096565;28;20035;-68
2022/03/09 04:53:23;;;;;;;11.57;6.35;;;1.20;99.90;;;;;;5117210;28;20052;-68
2022/03/09 04:55:48;;;;;;;15.23;8.00;;;1.10;99.90;;;;;;5118798;28;20063;-68
2022/03/09 04:58:14;;;;;;;14.52;7.50;;;1.20;99.90;;;;;;5115449;28;20044;-68
2022/03/09 05:00:40;;;;;;;10.07;6.38;;;1.30;99.90;;;;;;5094812;28;20048;-68
2022/03/09 05:03:05;;;;;;;13.07;7.95;;;1.20;99.90;;;;;;5092632;28;20061;-68
2022/03/09 05:05:31;;;;;;;13.23;6.63;;;1.10;99.90;;;;;;5094285;28;20544;-68
2022/03/09 05:07:57;;;;;;;16.13;7.88;;;1.10;99.90;;;;;;5094170;28;20063;-68
2022/03/09 05:10:22;;;;;;;16.08;8.15;;;1.20;99.90;;;;;;5093816;28;20040;-68
2022/03/09 05:12:48;;;;;;;11.73;7.68;;;1.10;99.90;;;;;;5091799;28;20040;-68
2022/03/09 05:15:13;;;;;;;13.15;7.53;;;1.10;99.90;;;;;;5093850;28;20040;-68
2022/03/09 05:17:41;;;;;;;15.35;8.20;;;1.10;99.90;;;;;;5094013;28;20047;-67
2022/03/09 05:20:07;;;;;;;12.75;7.45;;;1.10;99.90;;;;;;5092349;28;20475;-68
2022/03/09 05:22:32;;;;;;;11.82;6.70;;;1.10;99.90;;;;;;5093250;28;20047;-68
2022/03/09 05:24:58;;;;;;;12.32;6.80;;;1.10;99.90;;;;;;5094063;28;20044;-68
2022/03/09 05:27:27;;;;;;;12.30;7.93;;;1.10;99.90;;;;;;5094051;28;20044;-68
2022/03/09 05:29:52;;;;;;;22.92;7.80;;;1.10;99.90;;;;;;5100300;28;20400;-68
2022/03/09 05:32:18;;;;;;;14.25;8.05;;;1.10;99.90;;;;;;5102238;28;20036;-68
2022/03/09 05:34:46;;;;;;;14.65;8.13;;;1.00;99.90;;;;;;5094523;28;20040;-68
2022/03/09 05:37:12;;;;;;;11.63;6.93;;;1.00;99.90;;;;;;5093379;28;20048;-67
2022/03/09 05:39:37;;;;;;;11.55;7.15;;;1.00;99.90;;;;;;5093458;28;20122;-67
2022/03/09 05:42:03;;;;;;;12.90;7.70;;;0.90;99.90;;;;;;5092445;28;20047;-68
2022/03/09 05:44:29;;;;;;;12.60;8.07;;;0.90;99.90;;;;;;5093447;28;20036;-68
2022/03/09 05:46:56;;;;;;;12.20;6.97;;;0.90;99.90;;;;;;5093343;28;20052;-68
2022/03/09 05:49:22;;;;;;;13.35;7.13;;;0.90;99.90;;;;;;5093201;28;20036;-68
2022/03/09 05:51:48;;;;;;;16.58;7.57;;;0.90;99.90;;;;;;5091218;28;20059;-68
2022/03/09 05:54:13;;;;;;;12.73;7.72;;;0.80;99.90;;;;;;5084410;28;20044;-68
2022/03/09 05:56:40;;;;;;;16.80;7.53;;;0.80;99.90;;;;;;5082902;28;20727;-68
2022/03/09 05:59:05;;;;;;;16.25;7.78;;;0.80;99.90;;;;;;5089314;28;20040;-68
2022/03/09 06:01:31;;;;;;;13.15;6.97;;;0.80;99.90;;;;;;5072590;28;20371;-68
2022/03/09 06:03:56;;;;;;;12.10;7.32;;;0.80;99.90;;;;;;5049835;28;20043;-68
2022/03/09 06:06:22;;;;;;;17.95;7.43;;;0.90;99.90;;;;;;5049757;28;20041;-68
2022/03/09 06:08:47;;;;;;;12.95;6.82;;;0.90;99.90;;;;;;5052533;28;20037;-68
2022/03/09 06:11:13;;;;;;;13.10;6.85;;;0.90;99.90;;;;;;5052499;28;20608;-68
2022/03/09 06:13:38;;;;;;;12.02;7.38;;;0.90;99.90;;;;;;5051530;28;20040;-68
2022/03/09 06:16:04;;;;;;;13.98;6.90;;;1.00;99.90;;;;;;5052394;28;20513;-68
2022/03/09 06:18:30;;;;;;;14.15;7.25;;;1.00;99.90;;;;;;5052517;28;20163;-68
2022/03/09 06:20:56;;;;;;;11.73;6.65;;;1.00;99.90;;;;;;5052439;28;20204;-68
2022/03/09 06:23:21;;;;;;;12.52;7.32;;;0.90;99.90;;;;;;5050424;28;20512;-68
2022/03/09 06:25:47;;;;;;;12.73;7.43;;;0.90;99.90;;;;;;5052341;28;20033;-68
2022/03/09 06:28:12;;;;;;;15.25;7.63;;;0.90;99.90;;;;;;5053011;28;20041;-69
2022/03/09 06:30:38;;;;;;;13.65;7.13;;;1.00;99.90;;;;;;5076174;28;20036;-67
2022/03/09 06:33:03;;;;;;;15.40;6.85;;;1.00;99.90;;;;;;5071634;28;20041;-68
2022/03/09 06:35:29;;;;;;;13.20;7.28;;;1.00;99.90;;;;;;5051157;28;20040;-68
2022/03/09 06:37:54;;;;;;;14.98;7.68;;;1.10;99.90;;;;;;5052015;28;20048;-68
2022/03/09 06:40:21;;;;;;;14.15;7.32;;;0.90;99.90;;;;;;5052147;28;20044;-68
2022/03/09 06:42:47;;;;;;;13.25;6.72;;;1.00;99.90;;;;;;5051135;28;20128;-68
2022/03/09 06:45:13;;;;;;;13.82;7.80;;;1.00;99.90;;;;;;5050947;28;20413;-68
2022/03/09 06:47:38;;;;;;;11.13;7.13;;;1.00;99.90;;;;;;5056625;28;20040;-68
2022/03/09 06:50:07;;;;;;;13.65;7.22;;;1.10;99.90;;;;;;5062280;28;20130;-68
2022/03/09 06:52:32;;;;;;;11.48;6.63;;;1.10;99.90;;;;;;5053299;28;20044;-68
2022/03/09 06:55:02;;;;;;;11.48;6.80;;;1.10;99.90;;;;;;5051701;28;20486;-68
2022/03/09 06:57:29;;;;;;;15.18;7.50;;;1.00;99.90;;;;;;5050957;28;20045;-69
2022/03/09 06:59:56;;;;;;;11.80;7.20;;;1.10;99.90;;;;;;5051518;28;20036;-69
2022/03/09 07:02:22;;;;;;;11.73;6.72;;;1.20;99.90;;;;;;5050604;28;20098;-68
2022/03/09 07:04:48;;;;;;;16.83;7.25;;;1.30;99.90;;;;;;5049895;28;20525;-69
2022/03/09 07:07:13;;;;;;;13.20;7.65;;;1.40;99.90;;;;;;5049318;28;20124;-68
2022/03/09 07:09:39;;;;;;;10.40;6.85;;;1.50;99.90;;;;;;5050838;28;20040;-69
2022/03/09 07:12:05;;;;;;;12.80;7.20;;;1.60;99.90;;;;;;5050572;28;20453;-69
2022/03/09 07:14:31;;;;;;;12.68;7.68;;;1.70;99.90;;;;;;5049965;28;20037;-68
2022/03/09 07:16:56;;;;;;;11.88;7.47;;;1.80;99.90;;;;;;5051106;28;20211;-67
2022/03/09 07:19:22;;;;;;;14.88;7.55;;;1.90;99.90;;;;;;5049603;28;20424;-67
2022/03/09 07:21:48;;;;;;;16.35;7.55;;;1.90;99.90;;;;;;5049740;28;20087;-67
2022/03/09 07:24:14;;;;;;;11.02;6.95;;;2.10;99.90;;;;;;5051263;28;20037;-68
2022/03/09 07:26:41;;;;;;;12.48;7.07;;;2.10;99.90;;;;;;5051293;28;20114;-68
2022/03/09 07:29:12;;;;;;;12.10;7.80;;;2.20;99.90;;;;;;5049121;28;20071;-68
2022/03/09 07:31:39;;;;;;;14.43;7.22;;;2.30;99.90;;;;;;5066622;28;20138;-68
2022/03/09 07:34:05;;;;;;;15.27;7.50;;;2.40;99.90;;;;;;5073903;28;20044;-68
2022/03/09 07:36:31;;;;;;;13.15;7.40;;;2.40;99.90;;;;;;5089553;28;20063;-68
2022/03/09 07:38:57;;;;;;;13.63;7.70;;;2.50;99.90;;;;;;5090990;28;20075;-68
2022/03/09 07:41:22;;;;;;;12.10;7.22;;;2.60;99.90;;;;;;5089476;28;20044;-68
2022/03/09 07:43:48;;;;;;;12.90;6.90;;;2.60;99.90;;;;;;5090389;28;20152;-68
2022/03/09 07:46:14;;;;;;;13.70;6.93;;;2.70;99.90;;;;;;5090720;28;20053;-68
2022/03/09 07:48:39;;;;;;;12.63;6.97;;;2.70;99.90;;;;;;5091214;28;20047;-68
2022/03/09 07:51:07;;;;;;;13.55;6.38;;;2.80;99.90;;;;;;5081992;28;20082;-69
2022/03/09 07:53:33;;;;;;;11.75;6.82;;;2.90;99.90;;;;;;5070455;28;20044;-69
2022/03/09 07:55:59;;;;;;;13.35;6.90;;;2.90;99.90;;;;;;5091714;28;20040;-67
2022/03/09 07:58:24;;;;;;;11.48;7.35;;;3.00;99.90;;;;;;5090687;28;20043;-69
2022/03/09 08:00:50;;;;;;;14.02;7.70;;;3.10;99.90;;;;;;5072581;28;20040;-69
2022/03/09 08:03:16;;;;;;;12.00;6.93;;;3.10;99.90;;;;;;5069644;28;20421;-68
2022/03/09 08:05:44;;;;;;;12.07;6.50;;;3.10;99.90;;;;;;5053466;28;20124;-67
2022/03/09 08:08:10;;;;;;;12.95;7.97;;;3.30;99.90;;;;;;5063227;28;20394;-67
2022/03/09 08:10:35;;;;;;;10.98;6.78;;;3.30;99.90;;;;;;5058871;28;20051;-67
2022/03/09 08:13:01;;;;;;;10.70;6.65;;;3.30;99.90;;;;;;5058221;28;20519;-68
2022/03/09 08:15:26;;;;;;;14.20;7.63;;;3.40;99.90;;;;;;5059254;28;20046;-69
2022/03/09 08:17:52;;;;;;;11.60;7.57;;;3.50;99.90;;;;;;5059064;28;20521;-68
2022/03/09 08:20:17;;;;;;;13.90;7.45;;;3.60;99.90;;;;;;5059599;28;20481;-68
2022/03/09 08:22:43;;;;;;;11.90;7.35;;;3.60;99.90;;;;;;5069424;28;20048;-73
2022/03/09 08:25:09;;;;;;;12.57;7.15;;;3.60;99.90;;;;;;5070929;28;20136;-74
2022/03/09 08:27:35;;;;;;;14.23;7.07;;;3.70;99.90;;;;;;5070323;28;20048;-73
2022/03/09 08:30:02;;;;;;;11.07;6.30;;;4.00;99.90;;;;;;5067092;28;20051;-74
2022/03/09 08:32:28;;;;;;;11.00;6.32;;;4.10;99.90;;;;;;5069163;28;20036;-73
2022/03/09 08:34:54;;;;;;;12.43;7.72;;;4.00;99.90;;;;;;5068230;28;20063;-73
2022/03/09 08:37:19;;;;;;;19.30;6.95;;;4.10;99.90;;;;;;5069292;28;20199;-71
2022/03/09 08:39:48;;;;;;;12.68;6.97;;;4.10;99.90;;;;;;5069891;28;20090;-71
2022/03/09 08:42:14;;;;;;;12.27;7.35;;;4.20;99.90;;;;;;5069098;28;20484;-74
2022/03/09 08:44:40;;;;;;;14.23;6.88;;;4.30;99.90;;;;;;5069974;28;20048;-72
2022/03/09 08:47:06;;;;;;;14.00;7.13;;;4.40;99.90;;;;;;5069982;28;20120;-72
2022/03/09 08:49:33;;;;;;;13.85;7.35;;;4.50;99.90;;;;;;5068600;28;20068;-71
2022/03/09 08:51:59;;;;;;;14.57;7.15;;;4.70;99.90;;;;;;5069168;28;20037;-72
2022/03/09 08:54:24;;;;;;;14.40;8.07;;;4.80;99.90;;;;;;5068117;28;20549;-72
2022/03/09 08:56:50;;;;;;;14.85;7.18;;;4.90;99.90;;;;;;5069923;28;20044;-72
2022/03/09 08:59:16;;;;;;;11.90;6.80;;;4.90;99.90;;;;;;5069581;28;20076;-72
2022/03/09 09:01:42;;;;;;;16.75;7.18;;;5.00;99.90;;;;;;5069302;28;20033;-73
2022/03/09 09:04:08;;;;;;;14.38;6.93;;;5.10;99.90;;;;;;5051858;28;20047;-72
2022/03/09 09:06:33;;;;;;;12.68;7.15;;;5.20;99.90;;;;;;5068444;28;20032;-72
2022/03/09 09:08:59;;;;;;;12.82;7.07;;;5.30;99.90;;;;;;5069758;28;20050;-72
2022/03/09 09:11:25;;;;;;;12.38;6.80;;;5.30;99.90;;;;;;5068248;28;20036;-72
2022/03/09 09:13:51;;;;;;;12.57;7.45;;;5.50;99.90;;;;;;5067349;28;20087;-72
2022/03/09 09:16:16;;;;;;;13.18;7.75;;;5.60;99.90;;;;;;5069684;28;20056;-72
2022/03/09 09:18:43;;;;;;;17.17;6.38;;;5.70;99.90;;;;;;5069084;28;20111;-73
2022/03/09 09:21:10;;;;;;;12.43;6.93;;;5.80;97.20;;;;;;5076705;28;20040;-73
2022/03/09 09:23:38;;;;;;;14.68;7.00;;;5.90;96.50;;;;;;5090385;28;20048;-73
2022/03/09 09:26:04;;;;;;;9.73;6.85;;;6.10;81.60;;;;;;5076879;28;20390;-73
2022/03/09 09:28:30;;;;;;;15.43;6.63;;;6.10;85.70;;;;;;5068774;28;20420;-73
2022/03/09 09:30:56;;;;;;;9.00;6.57;;;6.10;92.90;;;;;;5070121;28;20040;-71
2022/03/09 09:33:22;;;;;;;9.68;6.03;;;6.40;92.50;;;;;;5072180;28;20040;-72
2022/03/09 09:35:48;;;;;;;10.32;6.65;;;6.30;93.40;;;;;;5071978;28;20516;-72
2022/03/09 09:38:14;;;;;;;10.93;6.57;;;6.50;91.90;;;;;;5071457;28;20261;-72
2022/03/09 09:40:43;;;;;;;11.95;7.28;;;6.50;84.70;;;;;;5062106;28;20116;-73
2022/03/09 09:43:14;;;;;;;17.38;7.03;;;6.60;92.40;;;;;;5050023;28;20081;-73
2022/03/09 09:45:41;;;;;;;11.38;7.03;;;6.70;66.30;;;;;;5052626;28;20428;-72
2022/03/09 09:48:08;;;;;;;9.50;6.30;;;6.70;73.80;;;;;;5052913;28;20052;-72
2022/03/09 09:50:35;;;;;;;9.55;6.45;;;6.90;71.20;;;;;;5051826;28;20458;-72
2022/03/09 09:53:11;;;;;;;11.70;7.03;;;7.00;69.10;;;;;;5051917;28;20041;-72
2022/03/09 09:55:37;;;;;;;10.77;6.85;;;7.00;69.00;;;;;;5052793;28;20111;-73
2022/03/09 09:58:03;;;;;;;11.77;6.97;;;7.10;71.30;;;;;;5052708;28;20095;-72
2022/03/09 10:00:30;;;;;;;11.88;7.18;;;7.00;64.00;;;;;;5052795;28;20040;-73
2022/03/09 10:02:56;;;;;;;10.75;6.63;;;7.20;65.30;;;;;;5033856;28;20036;-73
2022/03/09 10:05:22;;;;;;;13.93;7.38;;;7.20;66.30;;;;;;5052933;28;20032;-73
2022/03/09 10:08:02;;;;;;;10.45;6.28;;;7.20;67.90;;;;;;5052729;28;20040;-73
2022/03/09 10:10:28;;;;;;;9.32;5.90;;;7.40;62.10;;;;;;5052624;28;20404;-73
2022/03/09 10:13:12;;;;;;;11.13;6.60;;;7.50;61.70;;;;;;5050259;28;20128;-73
2022/03/09 10:15:39;;;;;;;13.13;6.80;;;7.50;62.40;;;;;;5051486;28;20075;-73
2022/03/09 10:18:16;;;;;;;11.80;7.15;;;7.60;60.00;;;;;;5052276;28;20589;-73
2022/03/09 10:20:42;;;;;;;10.82;6.53;;;7.50;60.30;;;;;;5051131;28;20370;-73
2022/03/09 10:23:09;;;;;;;10.57;7.00;;;7.70;58.50;;;;;;5050376;28;20424;-73
2022/03/09 10:25:34;;;;;;;13.45;7.60;;;7.70;60.60;;;;;;5034582;28;20047;-73
2022/03/09 10:28:07;;;;;;;12.27;7.80;;;7.70;60.70;;;;;;5034183;28;20526;-71
2022/03/09 10:30:34;;;;;;;12.05;7.25;;;7.80;58.30;;;;;;5034231;28;20114;-72
2022/03/09 10:33:04;;;;;;;10.98;6.53;;;7.90;57.20;;;;;;5051477;28;20080;-73
2022/03/09 10:35:30;;;;;;;4.13;3.15;;;7.80;59.20;;;;;;5051773;28;20052;-71
2022/03/09 10:38:06;;;;;;;13.23;7.05;;;9.40;99.90;;;;;;5052193;28;20091;-70
2022/03/09 10:40:39;;;;;;;13.27;7.55;;;8.90;54.70;;;;;;5052087;28;20079;-72
2022/03/09 10:43:13;;;;;;;;;;;8.60;55.70;;;;;;5051551;28;20725;-72
2022/03/09 10:46:09;;;;;;;13.52;7.57;;;8.60;53.80;;;;;;5072461;28;19979;-73
2022/03/09 10:48:49;;;;;;;12.75;7.18;;;8.60;54.90;;;;;;5046761;28;20123;-73
2022/03/09 10:51:34;;;;;;;14.63;6.85;;;8.60;57.10;;;;;;5048840;28;20131;-74
2022/03/09 10:54:05;;;;;;;13.93;7.28;;;8.90;62.90;;;;;;5049699;28;20052;-73
2022/03/09 10:56:32;;;;;;;14.45;8.05;;;8.80;57.30;;;;;;5050051;28;20044;-73
2022/03/09 10:59:09;;;;;;;13.00;7.57;;;8.80;57.30;;;;;;5050159;28;20037;-72
2022/03/09 11:01:35;;;;;;;13.48;8.13;;;8.70;55.20;;;;;;5050185;28;20098;-72
2022/03/09 11:04:11;;;;;;;9.45;4.90;;;8.90;58.30;;;;;;5049862;28;20470;-69
2022/03/09 11:06:37;;;;;;;13.38;7.22;;;10.10;69.60;;;;;;5033698;28;20037;-73
2022/03/09 11:09:02;;;;;;;14.18;7.40;;;9.80;55.50;;;;;;5050100;28;20072;-73
2022/03/09 11:11:29;;;;;;;11.23;7.13;;;10.00;58.80;;;;;;5049870;28;20081;-72
2022/03/09 11:13:58;;;;;;;11.75;7.65;;;9.50;56.10;;;;;;5049114;28;20095;-72
2022/03/09 11:16:24;;;;;;;12.63;7.40;;;9.40;57.00;;;;;;5050539;28;20161;-73
2022/03/09 11:18:50;;;;;;;12.27;7.68;;;9.30;56.10;;;;;;5049840;28;20116;-73
2022/03/09 11:21:16;;;;;;;11.15;5.53;;;9.30;59.00;;;;;;5049768;28;20048;-71
2022/03/09 11:23:42;;;;;;;10.88;7.85;;;9.60;95.10;;;;;;5050530;28;20048;-74
2022/03/09 11:26:09;;;;;;;17.15;7.97;;;9.50;55.10;;;;;;5050035;28;20049;-73
2022/03/09 11:28:40;;;;;;;11.85;7.70;;;9.50;56.30;;;;;;5049580;28;20094;-73
2022/03/09 11:31:08;;;;;;;12.82;7.78;;;9.40;55.70;;;;;;5051023;28;20052;-73
2022/03/09 11:33:41;;;;;;;15.38;8.73;;;9.50;55.60;;;;;;5048507;28;20490;-69
2022/03/09 11:36:29;;;;;;;14.70;8.38;;;9.50;55.40;;;;;;5050492;28;20494;-69
2022/03/09 11:39:03;;;;;;;13.75;8.02;;;9.50;55.20;;;;;;5050577;28;20048;-73
2022/03/09 11:41:36;;;;;;;17.80;8.00;;;9.50;54.10;;;;;;5049568;28;20128;-73
2022/03/09 11:44:20;;;;;;;10.38;6.28;;;9.60;56.00;;;;;;5049326;28;20083;-73
2022/03/09 11:47:00;;;;;;;12.05;7.90;;;10.30;60.30;;;;;;5032726;28;20045;-70
2022/03/09 11:49:45;;;;;;;12.27;7.97;;;9.80;52.70;;;;;;5050196;28;20056;-70
2022/03/09 11:52:19;;;;;;;13.93;7.32;;;9.80;52.80;;;;;;5049513;28;20086;-70
2022/03/09 11:54:55;;;;;;;11.77;8.15;;;9.80;53.90;;;;;;5050043;28;20130;-70
2022/03/09 11:57:44;;;;;;;15.27;7.65;;;9.80;53.50;;;;;;5048667;28;20045;-70
2022/03/09 12:00:14;;;;;;;10.95;7.65;;;9.90;51.80;;;;;;5048625;28;20913;-67
2022/03/09 12:02:42;;;;;;;11.10;7.53;;;9.90;52.20;;;;;;5048604;28;20378;-67
2022/03/09 12:05:26;;;;;;;12.20;7.78;;;10.00;52.90;;;;;;5051026;28;20151;-66
2022/03/09 12:07:53;;;;;;;12.23;8.07;;;10.10;50.80;;;;;;5057807;28;20044;-67
2022/03/09 12:10:22;;;;;;;15.07;8.38;;;10.10;51.80;;;;;;5051534;28;20043;-68
2022/03/09 12:13:10;;;;;;;11.98;8.13;;;10.10;51.20;;;;;;5054937;28;20037;-68
2022/03/09 12:16:12;;;;;;;14.52;7.18;;;10.20;50.20;;;;;;5050187;28;20051;-68
2022/03/09 12:18:41;;;;;;;14.50;7.90;;;10.20;52.50;;;;;;5063492;28;20041;-70
2022/03/09 12:21:08;;;;;;;15.25;7.65;;;10.20;51.60;;;;;;5049819;28;20064;-70
2022/03/09 12:23:35;;;;;;;13.63;8.10;;;10.20;51.30;;;;;;5047536;28;20041;-70
2022/03/09 12:26:01;;;;;;;13.18;8.43;;;10.30;50.80;;;;;;5050269;28;20069;-71
2022/03/09 12:28:43;;;;;;;11.45;7.53;;;10.30;52.90;;;;;;5050108;28;20099;-71
2022/03/09 12:31:14;;;;;;;14.65;7.93;;;10.40;51.20;;;;;;5050117;28;20045;-71
2022/03/09 12:33:40;;;;;;;14.43;8.25;;;10.40;51.60;;;;;;5047619;28;20768;-71
2022/03/09 12:36:14;;;;;;;15.02;7.85;;;10.30;51.60;;;;;;5050071;28;20041;-70
2022/03/09 12:38:43;;;;;;;13.68;8.38;;;10.40;51.30;;;;;;5048675;28;20497;-70
2022/03/09 12:41:29;;;;;;;17.00;8.73;;;10.40;50.40;;;;;;5050671;28;20048;-70
2022/03/09 12:44:00;;;;;;;12.55;8.52;;;10.30;51.20;;;;;;5048405;28;20087;-70
2022/03/09 12:46:28;;;;;;;13.90;8.10;;;10.40;51.70;;;;;;5032173;28;20072;-70
2022/03/09 12:49:08;;;;;;;14.95;7.93;;;10.50;52.10;;;;;;5032430;28;20036;-70
2022/03/09 12:51:35;;;;;;;13.73;8.52;;;10.60;50.00;;;;;;5048446;28;20037;-70